Time;durP1;ratioP1;P1;durP2;ratioP2;P2;SDS_P1;SDS_P2;PMS_P1;PMS_P2;Temp;Humidity;BMP_temperature;BMP_pressure;BME280_temperature;BME280_humidity;BME280_pressure;Samples;Min_cycle;Max_cycle;Signal;HPM_P1;HPM_P2
2022/05/24 00:00:16;;;;;;;3.60;3.30;;;;;;;10.55;69.92;97750.48;105932;1276;137226;-72
2022/05/24 00:02:57;;;;;;;4.00;3.50;;;;;;;10.52;70.02;97749.98;106291;1277;22729;-72
2022/05/24 00:05:27;;;;;;;4.40;3.50;;;;;;;10.49;70.12;97752.95;106338;1277;137257;-72
2022/05/24 00:07:54;;;;;;;4.80;3.70;;;;;;;10.46;70.36;97754.02;106482;1277;22664;-72
2022/05/24 00:10:28;;;;;;;3.70;3.20;;;;;;;10.44;70.35;97755.09;106819;1277;138050;-72
2022/05/24 00:12:56;;;;;;;3.50;3.20;;;;;;;10.45;70.52;97755.05;106266;1274;22562;-74
2022/05/24 00:15:29;;;;;;;4.10;3.70;;;;;;;10.46;70.57;97753.31;106373;1275;24383;-72
2022/05/24 00:18:17;;;;;;;6.00;3.40;;;;;;;10.47;70.70;97743.90;105974;1276;137113;-72
2022/05/24 00:20:50;;;;;;;3.60;2.70;;;;;;;10.45;70.84;97752.80;106125;1276;23949;-72
2022/05/24 00:23:19;;;;;;;4.30;3.70;;;;;;;10.43;71.21;97751.38;106988;1276;137374;-72
2022/05/24 00:25:47;;;;;;;;;;;;;;;10.40;71.02;97757.14;106523;1274;24310;-73
2022/05/24 00:28:16;;;;;;;4.10;3.30;;;;;;;10.39;71.36;97755.06;106543;1277;123961;-73
2022/05/24 00:30:45;;;;;;;4.80;4.00;;;;;;;10.37;71.22;97755.48;106557;1277;24271;-73
2022/05/24 00:33:13;;;;;;;5.40;3.50;;;;;;;10.38;71.43;97761.20;106078;1276;22550;-73
2022/05/24 00:35:42;;;;;;;5.10;3.20;;;;;;;10.41;71.81;97761.82;106786;1276;138263;-73
2022/05/24 00:38:16;;;;;;;3.70;3.30;;;;;;;10.45;71.49;97758.54;106338;1276;22557;-73
2022/05/24 00:40:58;;;;;;;4.80;3.50;;;;;;;10.47;71.49;97753.15;105921;1276;137409;-73
2022/05/24 00:43:38;;;;;;;6.80;3.50;;;;;;;10.48;71.59;97752.40;106291;1276;24422;-73
2022/05/24 00:46:11;;;;;;;5.60;4.00;;;;;;;10.50;71.67;97747.40;105903;1277;137647;-73
2022/05/24 00:48:48;;;;;;;5.00;3.70;;;;;;;10.48;71.55;97748.37;106296;1277;22719;-73
2022/05/24 00:51:47;;;;;;;4.40;3.90;;;;;;;10.50;71.59;97754.27;106852;1277;22564;-73
2022/05/24 00:54:28;;;;;;;4.70;3.30;;;;;;;10.53;71.68;97743.56;106109;1277;137861;-73
2022/05/24 00:56:58;;;;;;;4.30;3.70;;;;;;;10.56;71.51;97736.23;106278;1276;22594;-73
2022/05/24 00:59:54;;;;;;;4.70;3.70;;;;;;;10.60;71.58;97732.88;106167;1276;137347;-73
2022/05/24 01:02:22;;;;;;;3.70;3.40;;;;;;;10.61;71.24;97734.13;106191;1276;22589;-73
2022/05/24 01:04:50;;;;;;;4.50;3.70;;;;;;;10.62;71.30;97733.53;106074;1277;137649;-73
2022/05/24 01:07:19;;;;;;;5.10;3.60;;;;;;;10.64;71.60;97726.30;106343;1276;25515;-73
2022/05/24 01:10:04;;;;;;;4.10;3.50;;;;;;;10.62;71.29;97716.00;106168;1276;24259;-73
2022/05/24 01:12:50;;;;;;;5.00;4.20;;;;;;;10.62;71.41;97714.91;106231;1277;137224;-73
2022/05/24 01:15:18;;;;;;;4.70;3.40;;;;;;;10.63;71.38;97711.60;106007;1277;32140;-73
2022/05/24 01:17:47;;;;;;;3.60;3.30;;;;;;;10.66;71.41;97710.69;106398;1277;137780;-73
2022/05/24 01:20:28;;;;;;;4.30;3.80;;;;;;;10.68;71.37;97719.73;106771;1277;22623;-73
2022/05/24 01:23:01;;;;;;;5.30;4.20;;;;;;;10.70;71.50;97721.06;106825;1277;137113;-73
2022/05/24 01:25:48;;;;;;;4.20;3.80;;;;;;;10.70;71.39;97720.52;106141;1277;23364;-73
2022/05/24 01:28:27;;;;;;;4.50;3.70;;;;;;;10.71;71.36;97719.92;106536;1275;138054;-73
2022/05/24 01:30:55;;;;;;;5.30;4.10;;;;;;;10.72;71.60;97716.93;106459;1277;22570;-73
2022/05/24 01:36:09;;;;;;;5.80;3.90;;;;;;;10.77;71.33;97714.18;106239;1276;138162;-73
2022/05/24 01:38:48;;;;;;;4.40;4.00;;;;;;;10.79;71.42;97710.54;106201;1276;22551;-73
2022/05/24 01:41:31;;;;;;;5.70;4.10;;;;;;;10.81;71.12;97712.14;106609;1276;137141;-73
2022/05/24 01:44:00;;;;;;;5.00;4.20;;;;;;;10.81;71.14;97707.60;106583;1276;22601;-74
2022/05/24 01:46:34;;;;;;;5.20;4.00;;;;;;;10.81;71.20;97703.31;106301;1275;137837;-73
2022/05/24 01:49:08;;;;;;;5.80;4.20;;;;;;;10.82;70.96;97700.15;106288;1277;24452;-73
2022/05/24 01:51:45;;;;;;;6.40;4.30;;;;;;;10.81;71.10;97698.30;106596;1277;22624;-73
2022/05/24 01:54:14;;;;;;;6.30;4.00;;;;;;;10.82;71.00;97693.13;106369;1274;138541;-73
2022/05/24 01:56:50;;;;;;;4.90;4.00;;;;;;;10.83;71.02;97690.58;106203;1276;22559;-74
2022/05/24 01:59:19;;;;;;;4.10;3.70;;;;;;;10.84;70.70;97688.13;106009;1276;137191;-73
2022/05/24 02:01:57;;;;;;;7.50;4.30;;;;;;;10.82;70.66;97688.23;106512;1276;22529;-72
2022/05/24 02:04:25;;;;;;;5.40;4.20;;;;;;;10.80;70.93;97685.92;106566;1276;137473;-72
2022/05/24 02:07:02;;;;;;;4.90;4.40;;;;;;;10.78;70.79;97682.21;106356;1276;22713;-72
2022/05/24 02:09:30;;;;;;;5.00;3.90;;;;;;;10.75;70.82;97680.67;106108;1277;22558;-72
2022/05/24 02:12:08;;;;;;;6.00;4.20;;;;;;;10.70;70.99;97676.14;106058;1277;137286;-72
2022/05/24 02:14:40;;;;;;;4.60;4.20;;;;;;;10.65;71.00;97685.20;106025;1277;22607;-72
2022/05/24 02:17:29;;;;;;;4.40;4.00;;;;;;;10.59;71.15;97674.94;106355;1277;137990;-72
2022/05/24 02:19:58;;;;;;;;;;;;;;;10.57;71.12;97679.10;106077;1277;22531;-73
2022/05/24 02:22:28;;;;;;;6.80;4.60;;;;;;;10.56;71.29;97680.10;105982;1275;123793;-72
2022/05/24 02:25:25;;;;;;;5.70;4.20;;;;;;;10.56;71.28;97678.08;106143;1277;22535;-72
2022/05/24 02:27:53;;;;;;;5.70;4.60;;;;;;;10.56;71.39;97674.76;106240;1277;22707;-72
2022/05/24 02:30:23;;;;;;;5.90;4.50;;;;;;;10.55;71.19;97675.40;106027;1275;137303;-72
2022/05/24 02:32:51;;;;;;;5.70;4.60;;;;;;;10.54;71.35;97673.77;106617;1277;22538;-72
2022/05/24 02:35:18;;;;;;;6.10;5.00;;;;;;;10.51;71.25;97672.16;105795;1277;137683;-72
2022/05/24 02:37:46;;;;;;;6.70;4.40;;;;;;;10.46;71.46;97669.25;106239;1276;23095;-72
2022/05/24 02:42:56;;;;;;;6.50;5.40;;;;;;;10.51;71.62;97675.33;106225;1276;22538;-72
2022/05/24 02:45:23;;;;;;;6.90;5.00;;;;;;;10.53;71.87;97675.23;105935;1276;23350;-73
2022/05/24 02:47:50;;;;;;;6.40;5.00;;;;;;;10.52;71.73;97675.66;106121;1277;137207;-73
2022/05/24 02:50:18;;;;;;;6.60;5.30;;;;;;;10.51;71.77;97671.36;106374;1277;24424;-73
2022/05/24 02:52:45;;;;;;;5.40;4.60;;;;;;;10.49;71.81;97674.39;105856;1277;138549;-73
2022/05/24 02:55:13;;;;;;;9.80;5.20;;;;;;;10.48;71.84;97669.86;106244;1277;23888;-73
2022/05/24 02:57:41;;;;;;;6.40;5.50;;;;;;;10.49;72.03;97674.98;106119;1276;31396;-73
2022/05/24 03:00:12;;;;;;;6.20;4.90;;;;;;;10.49;71.99;97666.06;105886;1277;139651;-73
2022/05/24 03:02:43;;;;;;;6.20;5.00;;;;;;;10.49;71.76;97671.39;106038;1276;22659;-74
2022/05/24 03:05:12;;;;;;;7.60;5.50;;;;;;;10.48;71.92;97668.39;105994;1276;137680;-73
2022/05/24 03:10:20;;;;;;;7.60;5.60;;;;;;;10.49;71.86;97667.36;106201;1277;137903;-73
2022/05/24 03:15:43;;;;;;;7.40;5.20;;;;;;;10.50;72.15;97661.33;106128;1275;22711;-73
2022/05/24 03:18:12;;;;;;;6.70;5.40;;;;;;;10.51;72.18;97665.19;106115;1276;137972;-73
2022/05/24 03:20:40;;;;;;;6.30;5.60;;;;;;;10.55;72.19;97665.23;106450;1276;22556;-72
2022/05/24 03:23:08;;;;;;;7.20;5.60;;;;;;;10.57;72.03;97664.25;106295;1276;137643;-73
2022/05/24 03:25:36;;;;;;;6.80;5.20;;;;;;;10.59;72.09;97662.95;106161;1276;24283;-73
2022/05/24 03:28:07;;;;;;;8.60;5.60;;;;;;;10.62;71.88;97663.73;106378;1277;29621;-72
2022/05/24 03:30:41;;;;;;;8.20;6.30;;;;;;;10.61;71.99;97664.71;106007;1277;137353;-73
2022/05/24 03:33:08;;;;;;;7.20;5.30;;;;;;;10.59;71.76;97661.92;106496;1276;25261;-72
2022/05/24 03:35:35;;;;;;;8.60;5.20;;;;;;;10.55;71.79;97663.36;106569;1276;137971;-73
2022/05/24 03:38:03;;;;;;;6.50;4.80;;;;;;;10.54;71.89;97662.77;106285;1274;25507;-73
2022/05/24 03:40:31;;;;;;;5.50;4.40;;;;;;;10.56;72.03;97659.98;106065;1276;138115;-73
2022/05/24 03:42:58;;;;;;;6.20;5.00;;;;;;;10.57;71.94;97660.77;106099;1276;22829;-73
2022/05/24 03:45:26;;;;;;;5.70;5.10;;;;;;;10.59;72.22;97661.27;106068;1276;22711;-73
2022/05/24 03:47:53;;;;;;;7.20;5.50;;;;;;;10.63;72.15;97665.70;106431;1276;137199;-73
2022/05/24 03:50:22;;;;;;;6.00;5.00;;;;;;;10.68;71.91;97663.27;106214;1277;23369;-73
2022/05/24 03:52:49;;;;;;;6.60;5.40;;;;;;;10.72;71.98;97662.09;106388;1277;137564;-73
2022/05/24 03:55:17;;;;;;;7.00;5.10;;;;;;;10.74;71.95;97667.59;106078;1277;22573;-73
2022/05/24 04:00:28;;;;;;;8.60;5.10;;;;;;;10.85;71.95;97671.95;106272;1276;137354;-73
2022/05/24 04:03:12;;;;;;;6.30;5.10;;;;;;;10.89;71.75;97675.17;106543;1276;22701;-73
2022/05/24 04:05:39;;;;;;;6.60;5.50;;;;;;;10.87;71.60;97674.96;105875;1276;137259;-73
2022/05/24 04:08:07;;;;;;;6.50;5.40;;;;;;;10.86;71.43;97673.09;106160;1276;23069;-73
2022/05/24 04:10:35;;;;;;;5.80;5.00;;;;;;;10.86;71.41;97668.14;106003;1277;138236;-73
2022/05/24 04:13:16;;;;;;;6.30;4.80;;;;;;;10.85;71.41;97665.30;105986;1275;22849;-73
2022/05/24 04:15:43;;;;;;;5.80;4.80;;;;;;;10.88;71.79;97666.45;106147;1277;22560;-73
2022/05/24 04:18:10;;;;;;;6.20;5.20;;;;;;;10.91;71.30;97669.80;106031;1276;138665;-74
2022/05/24 04:20:37;;;;;;;6.10;4.80;;;;;;;10.94;71.58;97668.06;106154;1277;24320;-74
2022/05/24 04:23:04;;;;;;;7.10;5.20;;;;;;;10.99;71.87;97667.26;106032;1276;137366;-74
2022/05/24 04:25:46;;;;;;;7.20;5.00;;;;;;;11.01;71.39;97660.23;105997;1276;24430;-74
2022/05/24 04:28:13;;;;;;;8.20;4.80;;;;;;;11.04;71.47;97661.39;106646;1277;22654;-73
2022/05/24 04:30:55;;;;;;;6.30;5.30;;;;;;;11.08;71.37;97663.09;106332;1274;137686;-72
2022/05/24 04:33:36;;;;;;;5.00;4.50;;;;;;;11.11;71.35;97670.56;105961;1277;22564;-73
2022/05/24 04:36:03;;;;;;;7.10;5.30;;;;;;;11.16;71.41;97673.41;106221;1277;138256;-72
2022/05/24 04:38:44;;;;;;;5.60;4.90;;;;;;;11.19;71.19;97673.15;105971;1277;22570;-74
2022/05/24 04:43:52;;;;;;;5.90;4.90;;;;;;;11.30;71.00;97679.23;105993;1276;23323;-72
2022/05/24 04:46:20;;;;;;;7.30;5.30;;;;;;;11.37;71.48;97685.63;106124;1276;22805;-73
2022/05/24 04:49:00;;;;;;;5.50;5.00;;;;;;;11.47;71.17;97689.67;105935;1277;139212;-73
2022/05/24 04:51:27;;;;;;;6.70;5.60;;;;;;;11.53;71.00;97693.46;107043;1277;25299;-73
2022/05/24 04:53:55;;;;;;;6.70;5.30;;;;;;;11.57;70.65;97689.77;105870;1277;137985;-73
2022/05/24 04:56:22;;;;;;;6.50;5.20;;;;;;;11.64;70.63;97692.98;105918;1277;24402;-74
2022/05/24 04:58:49;;;;;;;5.80;5.20;;;;;;;11.71;70.38;97694.03;106001;1276;138153;-73
2022/05/24 05:01:17;;;;;;;6.60;5.70;;;;;;;11.76;70.01;97698.45;105988;1276;25320;-73
2022/05/24 05:03:44;;;;;;;5.80;5.20;;;;;;;11.83;70.23;97692.63;106518;1276;25450;-73
2022/05/24 05:06:11;;;;;;;8.00;5.30;;;;;;;11.86;69.92;97683.89;106098;1277;137363;-73
2022/05/24 05:08:38;;;;;;;5.90;5.00;;;;;;;11.90;69.88;97680.02;106624;1276;23578;-73
2022/05/24 05:11:05;;;;;;;11.70;5.60;;;;;;;11.96;70.39;97678.03;106195;1277;138215;-73
2022/05/24 05:13:35;;;;;;;5.80;5.10;;;;;;;12.02;70.26;97681.03;105907;1277;22535;-73
2022/05/24 05:16:02;;;;;;;6.60;5.50;;;;;;;12.08;69.94;97691.13;106191;1277;25567;-73
2022/05/24 05:18:43;;;;;;;6.90;4.90;;;;;;;12.11;69.54;97691.83;105819;1276;138198;-73
2022/05/24 05:21:10;;;;;;;8.60;5.00;;;;;;;12.17;69.38;97691.56;106242;1276;22521;-73
2022/05/24 05:23:37;;;;;;;7.60;5.50;;;;;;;12.24;69.51;97694.12;106015;1275;137750;-73
2022/05/24 05:26:19;;;;;;;6.00;4.70;;;;;;;12.32;69.44;97695.08;105940;1276;24324;-73
2022/05/24 05:28:46;;;;;;;7.20;5.30;;;;;;;12.38;69.23;97693.17;106213;1277;137534;-73
2022/05/24 05:34:08;;;;;;;6.90;5.10;;;;;;;12.53;68.90;97699.30;105944;1277;24297;-73
2022/05/24 05:36:49;;;;;;;6.40;5.40;;;;;;;12.59;68.61;97698.37;106210;1277;137865;-73
2022/05/24 05:39:30;;;;;;;8.00;5.30;;;;;;;12.64;68.44;97696.29;106017;1276;23152;-73
2022/05/24 05:42:12;;;;;;;6.80;5.60;;;;;;;12.71;68.64;97698.07;105763;1277;137284;-73
2022/05/24 05:44:39;;;;;;;7.40;5.60;;;;;;;12.82;68.73;97689.30;106274;1276;23390;-73
2022/05/24 05:47:20;;;;;;;7.40;4.70;;;;;;;12.93;68.48;97675.10;106027;1276;138695;-72
2022/05/24 05:49:47;;;;;;;6.80;5.40;;;;;;;13.02;68.06;97672.76;106345;1276;22561;-73
2022/05/24 05:52:16;;;;;;;6.00;5.30;;;;;;;13.13;68.59;97678.40;105883;1277;25521;-73
2022/05/24 05:54:43;;;;;;;9.50;5.50;;;;;;;13.20;68.55;97680.55;105800;1277;137148;-72
2022/05/24 05:57:11;;;;;;;6.60;5.10;;;;;;;13.28;68.68;97674.77;106137;1277;24312;-72
2022/05/24 05:59:39;;;;;;;5.60;5.00;;;;;;;13.35;68.68;97672.89;105876;1277;137402;-72
2022/05/24 06:02:08;;;;;;;5.60;4.60;;;;;;;13.42;68.90;97673.52;106430;1276;24420;-72
2022/05/24 06:04:35;;;;;;;5.80;5.10;;;;;;;13.48;68.57;97675.66;106272;1277;24245;-72
2022/05/24 06:07:16;;;;;;;6.90;5.30;;;;;;;13.54;68.28;97681.42;106389;1276;137024;-72
2022/05/24 06:09:44;;;;;;;5.60;4.80;;;;;;;13.63;68.73;97692.09;106879;1276;22557;-73
2022/05/24 06:12:13;;;;;;;9.60;5.00;;;;;;;13.71;67.95;97699.74;106756;1277;138116;-73
2022/05/24 06:14:40;;;;;;;6.30;5.40;;;;;;;13.77;68.26;97706.88;106827;1277;23251;-73
2022/05/24 06:17:07;;;;;;;6.30;4.70;;;;;;;13.86;68.44;97704.52;106814;1277;137638;-73
2022/05/24 06:19:35;;;;;;;5.50;5.00;;;;;;;13.93;68.10;97706.39;106690;1276;22690;-73
2022/05/24 06:22:03;;;;;;;8.90;5.20;;;;;;;14.03;68.46;97708.75;106270;1276;22609;-73
2022/05/24 06:24:30;;;;;;;7.50;5.00;;;;;;;14.13;68.12;97704.90;106067;1276;138010;-73
2022/05/24 06:26:58;;;;;;;6.20;5.20;;;;;;;14.25;67.94;97702.94;106441;1276;23246;-73
2022/05/24 06:29:25;;;;;;;6.60;5.20;;;;;;;14.34;67.86;97702.52;106667;1276;137632;-73
2022/05/24 06:31:53;;;;;;;5.60;5.00;;;;;;;14.40;67.28;97704.38;106903;1277;25262;-73
2022/05/24 06:34:20;;;;;;;6.60;5.10;;;;;;;14.50;67.07;97701.95;106518;1277;23127;-73
2022/05/24 06:36:48;;;;;;;9.00;5.40;;;;;;;14.63;66.89;97696.36;106502;1277;137261;-73
2022/05/24 06:39:30;;;;;;;5.50;4.90;;;;;;;14.76;66.47;97700.92;106793;1277;23358;-73
2022/05/24 06:41:57;;;;;;;6.80;5.00;;;;;;;14.88;66.11;97703.60;106682;1276;137169;-73
2022/05/24 06:44:34;;;;;;;7.50;4.90;;;;;;;15.00;65.89;97707.48;105895;1276;764241;-73
2022/05/24 06:47:15;;;;;;;10.60;4.90;;;;;;;15.10;65.17;97704.77;106062;1276;137587;-73
2022/05/24 06:49:57;;;;;;;6.30;5.20;;;;;;;15.22;64.76;97703.29;106457;1277;22711;-73
2022/05/24 06:52:38;;;;;;;7.40;4.90;;;;;;;15.29;64.36;97701.90;106220;1277;30966;-73
2022/05/24 06:55:07;;;;;;;10.40;5.20;;;;;;;15.36;64.65;97702.77;106195;1277;137225;-73
2022/05/24 06:57:34;;;;;;;6.90;5.20;;;;;;;15.46;64.46;97704.47;106562;1277;24502;-72
2022/05/24 07:02:49;;;;;;;9.00;5.30;;;;;;;15.54;63.11;97704.29;106204;1278;30602;-72
2022/05/24 07:05:20;;;;;;;9.10;5.00;;;;;;;15.58;63.34;97700.89;106616;1277;137915;-72
2022/05/24 07:07:47;;;;;;;6.50;5.30;;;;;;;15.67;63.30;97696.97;107192;1275;22608;-72
2022/05/24 07:10:21;;;;;;;10.30;4.50;;;;;;;15.79;62.70;97694.19;106101;1278;22535;-72
2022/05/24 07:13:05;;;;;;;6.40;5.00;;;;;;;15.88;62.31;97688.89;106250;1277;137505;-72
2022/05/24 07:15:47;;;;;;;5.80;4.40;;;;;;;15.99;62.18;97690.26;106097;1278;24261;-72
2022/05/24 07:18:14;;;;;;;6.30;4.60;;;;;;;16.11;62.09;97685.67;106423;1277;137410;-72
2022/05/24 07:20:42;;;;;;;5.70;4.70;;;;;;;16.22;61.87;97688.61;106506;1277;27099;-72
2022/05/24 07:23:26;;;;;;;5.50;4.60;;;;;;;16.36;61.16;97692.27;106231;1276;137517;-74
2022/05/24 07:26:12;;;;;;;5.70;4.00;;;;;;;16.48;60.94;97695.48;105768;1278;25379;-73
2022/05/24 07:28:53;;;;;;;6.70;5.00;;;;;;;16.57;60.03;97691.77;105864;1278;22575;-74
2022/05/24 07:31:21;;;;;;;6.60;4.10;;;;;;;16.68;60.32;97697.91;106416;1277;137630;-76
2022/05/24 07:33:48;;;;;;;9.90;4.70;;;;;;;16.77;60.03;97705.17;105993;1278;29820;-80
2022/05/24 07:36:15;;;;;;;6.30;5.00;;;;;;;16.85;59.68;97700.15;106675;1277;137699;-83
2022/05/24 07:38:42;;;;;;;6.90;4.30;;;;;;;16.90;59.81;97707.05;106420;1278;22594;-79
2022/05/24 07:46:46;;;;;;;8.30;4.20;;;;;;;17.11;59.16;97699.20;106179;1277;25497;-84
2022/05/24 07:49:13;;;;;;;7.90;3.80;;;;;;;17.20;59.07;97698.17;105981;1278;137463;-85
2022/05/24 07:51:41;;;;;;;8.40;4.50;;;;;;;17.28;58.86;97699.93;106358;1277;22753;-79
2022/05/24 07:54:09;;;;;;;9.70;4.90;;;;;;;17.29;58.36;97702.29;106241;1278;137528;-82
2022/05/24 07:56:37;;;;;;;8.40;4.90;;;;;;;17.26;58.56;97702.83;106267;1277;22535;-82
2022/05/24 07:59:18;;;;;;;9.00;4.70;;;;;;;17.19;58.16;97702.95;106841;1277;137778;-82
2022/05/24 08:01:45;;;;;;;9.30;4.80;;;;;;;17.14;58.52;97699.08;106448;1277;24221;-82
2022/05/24 08:04:26;;;;;;;10.60;5.30;;;;;;;17.13;58.74;97697.83;106054;1277;22563;-82
2022/05/24 08:06:54;;;;;;;8.20;4.90;;;;;;;17.16;59.03;97700.52;106352;1276;137624;-82
2022/05/24 08:09:36;;;;;;;14.70;5.30;;;;;;;17.19;58.66;97703.50;106439;1277;22585;-82
2022/05/24 08:12:17;;;;;;;13.00;5.20;;;;;;;17.24;58.32;97705.20;105928;1277;138533;-82
2022/05/24 08:14:58;;;;;;;13.30;5.20;;;;;;;17.34;58.57;97701.23;106217;1277;32010;-82
2022/05/24 08:17:40;;;;;;;9.80;5.70;;;;;;;17.48;58.73;97707.62;106140;1277;137818;-82
2022/05/24 08:20:12;;;;;;;10.80;5.00;;;;;;;17.56;58.17;97703.79;106293;1276;22534;-83
2022/05/24 08:22:40;;;;;;;12.50;5.90;;;;;;;17.65;57.57;97705.52;106528;1277;22672;-82
2022/05/24 08:25:22;;;;;;;9.80;5.30;;;;;;;17.74;56.97;97710.27;106215;1277;137764;-82
2022/05/24 08:27:49;;;;;;;10.10;5.40;;;;;;;17.87;56.95;97708.18;106409;1277;22675;-82
2022/05/24 08:30:17;;;;;;;11.50;6.70;;;;;;;17.99;57.05;97709.34;106191;1276;137310;-83
2022/05/24 08:32:46;;;;;;;14.20;5.80;;;;;;;18.14;56.51;97709.21;106448;1277;22668;-83
2022/05/24 08:35:15;;;;;;;14.80;6.00;;;;;;;18.29;56.73;97709.65;106764;1277;137594;-82
2022/05/24 08:37:43;;;;;;;;;;;;;;;18.47;56.29;97712.75;106477;1277;25244;-82
2022/05/24 08:40:25;;;;;;;10.60;5.20;;;;;;;18.56;55.66;97710.14;106803;1277;22707;-82
2022/05/24 08:43:17;;;;;;;13.70;5.90;;;;;;;18.58;55.10;97709.92;106413;1276;137375;-81
2022/05/24 08:48:31;;;;;;;12.70;5.40;;;;;;;18.64;55.84;97702.92;106223;1277;138095;-83
2022/05/24 08:51:30;;;;;;;10.30;5.20;;;;;;;18.69;55.52;97701.84;106442;1277;22567;-83
2022/05/24 08:54:14;;;;;;;17.10;5.90;;;;;;;18.74;55.71;97703.64;105930;1277;137511;-83
2022/05/24 08:56:59;;;;;;;12.00;5.50;;;;;;;18.73;55.92;97699.86;106190;1276;22892;-83
2022/05/24 08:59:32;;;;;;;10.30;5.20;;;;;;;18.77;55.68;97697.18;106081;1277;138351;-83
2022/05/24 09:02:00;;;;;;;12.30;6.00;;;;;;;18.77;55.44;97700.16;106117;1276;25517;-82
2022/05/24 09:04:30;;;;;;;10.80;5.00;;;;;;;18.76;55.32;97696.85;106150;1280;22576;-83
2022/05/24 09:07:25;;;;;;;10.80;5.40;;;;;;;18.77;55.54;97697.76;106207;1277;137454;-82
2022/05/24 09:10:23;;;;;;;13.00;5.80;;;;;;;18.81;55.42;97695.48;106190;1277;25325;-83
2022/05/24 09:13:19;;;;;;;13.10;5.30;;;;;;;18.84;55.09;97698.08;106447;1277;137338;-83
2022/05/24 09:16:10;;;;;;;17.50;6.30;;;;;;;18.80;55.39;97694.28;106208;1276;22795;-83
2022/05/24 09:18:37;;;;;;;15.60;6.30;;;;;;;18.82;55.84;97696.27;106292;1276;137481;-84
2022/05/24 09:21:05;;;;;;;13.60;7.10;;;;;;;18.83;55.98;97695.05;106644;1276;22620;-83
2022/05/24 09:23:42;;;;;;;20.30;7.50;;;;;;;18.82;55.89;97699.42;106264;1276;137602;-83
2022/05/24 09:26:20;;;;;;;15.30;7.30;;;;;;;18.81;55.69;97702.76;106912;1276;24293;-83
2022/05/24 09:28:55;;;;;;;16.70;7.60;;;;;;;18.80;55.34;97707.52;106537;1277;22695;-83
2022/05/24 09:31:53;;;;;;;19.80;6.90;;;;;;;18.84;55.93;97710.75;106168;1278;137449;-83
2022/05/24 09:34:33;;;;;;;20.10;6.40;;;;;;;18.82;55.90;97710.26;106335;1278;22580;-83
2022/05/24 09:37:02;;;;;;;12.10;5.70;;;;;;;18.78;56.03;97719.15;106682;1277;137387;-84
2022/05/24 09:39:55;;;;;;;13.80;6.40;;;;;;;18.76;55.72;97717.72;106296;1277;22569;-83
2022/05/24 09:42:37;;;;;;;13.30;6.30;;;;;;;18.74;56.06;97720.30;106844;1277;137536;-84
2022/05/24 09:45:12;;;;;;;15.70;6.50;;;;;;;18.69;56.12;97721.54;106473;1277;22697;-86
2022/05/24 09:47:42;;;;;;;10.00;5.00;;;;;;;18.69;56.33;97724.03;106354;1277;137916;-86
2022/05/24 09:50:19;;;;;;;8.30;4.70;;;;;;;18.70;56.48;97726.48;106468;1277;22695;-85
2022/05/24 09:53:03;;;;;;;6.10;4.40;;;;;;;18.73;56.03;97727.30;106172;1277;22547;-85
2022/05/24 09:55:42;;;;;;;9.50;4.40;;;;;;;18.77;56.49;97728.26;106247;1277;137363;-85
2022/05/24 09:58:40;;;;;;;8.60;5.20;;;;;;;18.84;56.46;97726.70;106160;1277;25655;-85
2022/05/24 10:01:11;;;;;;;11.70;5.10;;;;;;;18.95;56.38;97723.96;105971;1279;138071;-85
2022/05/24 10:03:49;;;;;;;11.10;4.60;;;;;;;19.04;56.31;97727.70;106261;1278;22605;-85
2022/05/24 10:06:28;;;;;;;12.10;5.30;;;;;;;19.10;56.29;97726.85;106034;1278;137861;-85
2022/05/24 10:09:20;;;;;;;8.20;4.10;;;;;;;19.16;56.01;97724.77;106183;1277;24368;-85
2022/05/24 10:12:24;;;;;;;6.10;3.40;;;;;;;19.14;55.38;97728.61;106389;1277;137070;-86
2022/05/24 10:15:05;;;;;;;9.80;3.80;;;;;;;19.11;55.12;97729.75;106122;1277;25461;-86
2022/05/24 10:17:47;;;;;;;6.40;3.60;;;;;;;19.11;55.41;97733.95;106131;1277;137321;-87
2022/05/24 10:20:31;;;;;;;9.20;4.50;;;;;;;19.10;55.32;97729.27;106437;1277;22636;-85
2022/05/24 10:23:25;;;;;;;12.10;4.40;;;;;;;19.09;55.33;97730.02;106487;1277;22556;-84
2022/05/24 10:26:08;;;;;;;9.20;4.50;;;;;;;19.07;55.69;97721.41;106028;1278;22696;-83
2022/05/24 10:28:41;;;;;;;12.70;5.00;;;;;;;19.08;55.87;97718.36;107052;1277;22584;-79
2022/05/24 10:31:25;;;;;;;10.30;4.70;;;;;;;19.11;55.78;97721.98;105995;1277;137483;-83
2022/05/24 10:40:03;;;;;;;11.50;4.70;;;;;;;19.16;56.20;97711.42;106609;1277;25602;-83
2022/05/24 10:42:53;;;;;;;8.30;4.50;;;;;;;19.14;55.71;97709.27;107114;1278;137821;-83
2022/05/24 10:45:51;;;;;;;10.60;4.60;;;;;;;19.11;55.63;97713.64;106161;1277;22558;-82
2022/05/24 10:48:43;;;;;;;13.90;5.70;;;;;;;19.14;56.15;97709.27;106432;1277;137440;-83
2022/05/24 10:51:33;;;;;;;11.70;4.70;;;;;;;19.18;56.05;97708.36;106965;1277;25232;-83
2022/05/24 10:54:13;;;;;;;7.40;4.30;;;;;;;19.24;56.40;97704.16;106595;1277;137840;-83
2022/05/24 10:56:52;;;;;;;9.50;4.80;;;;;;;19.28;56.72;97707.04;106498;1277;22606;-83
2022/05/24 10:59:38;;;;;;;10.30;5.00;;;;;;;19.33;56.91;97706.83;106154;1277;23244;-83
2022/05/24 11:02:31;;;;;;;12.10;5.70;;;;;;;19.39;57.26;97706.45;106472;1277;23948;-84
2022/05/24 11:05:18;;;;;;;11.70;5.30;;;;;;;19.46;57.04;97710.25;106399;1277;24293;-83
2022/05/24 11:07:51;;;;;;;10.90;6.20;;;;;;;19.50;56.50;97715.48;105968;1277;137592;-83
2022/05/24 11:10:27;;;;;;;12.70;5.50;;;;;;;19.47;56.55;97714.80;106608;1277;22604;-84
2022/05/24 11:12:58;;;;;;;10.20;5.40;;;;;;;19.48;57.03;97719.10;106347;1277;137692;-84
2022/05/24 11:15:36;;;;;;;16.90;5.60;;;;;;;19.49;56.90;97714.80;106704;1277;25445;-83
2022/05/24 11:18:22;;;;;;;8.10;5.40;;;;;;;19.51;56.94;97714.78;106101;1278;137539;-83
2022/05/24 11:21:09;;;;;;;11.70;5.00;;;;;;;19.54;56.81;97712.61;106472;1277;25237;-83
2022/05/24 11:23:57;;;;;;;10.10;5.40;;;;;;;19.61;56.70;97712.20;106464;1277;24269;-83
2022/05/24 11:26:29;;;;;;;9.50;5.00;;;;;;;19.66;56.39;97709.48;106082;1277;137920;-84
2022/05/24 11:29:33;;;;;;;9.80;4.10;;;;;;;19.74;56.05;97704.95;106727;1277;22708;-84
2022/05/24 11:32:45;;;;;;;10.50;4.90;;;;;;;19.86;56.23;97702.59;106535;1277;137769;-83
2022/05/24 11:35:39;;;;;;;8.60;4.40;;;;;;;19.98;55.41;97703.18;106518;1277;22739;-83
2022/05/24 11:38:17;;;;;;;8.00;4.50;;;;;;;20.07;55.19;97703.45;106520;1277;137384;-83
2022/05/24 11:41:19;;;;;;;11.10;4.80;;;;;;;20.16;55.15;97707.95;106603;1277;22594;-84
2022/05/24 11:43:52;;;;;;;10.80;4.60;;;;;;;20.24;54.90;97707.37;105726;1278;137370;-84
2022/05/24 11:46:46;;;;;;;12.80;5.20;;;;;;;20.28;54.72;97706.29;106228;1277;23678;-83
2022/05/24 11:49:19;;;;;;;7.10;4.60;;;;;;;20.30;54.34;97703.32;106001;1277;137444;-83
2022/05/24 11:51:48;;;;;;;9.90;4.40;;;;;;;20.32;54.12;97699.67;106183;1277;22572;-83
2022/05/24 11:54:18;;;;;;;9.40;4.60;;;;;;;20.35;54.32;97699.54;106355;1277;137376;-83
2022/05/24 11:57:02;;;;;;;8.80;4.50;;;;;;;20.36;54.05;97702.48;106167;1277;24108;-83
2022/05/24 11:59:43;;;;;;;8.90;4.80;;;;;;;20.35;53.59;97698.44;106037;1278;23380;-82
2022/05/24 12:02:19;;;;;;;7.80;4.80;;;;;;;20.36;54.43;97696.69;106152;1276;138117;-83
2022/05/24 12:08:01;;;;;;;14.40;4.90;;;;;;;20.46;55.07;97687.73;106132;1277;137500;-83
2022/05/24 12:10:46;;;;;;;7.70;4.50;;;;;;;20.49;55.47;97687.90;106452;1275;22563;-83
2022/05/24 12:13:30;;;;;;;6.50;4.30;;;;;;;20.51;55.84;97681.19;106026;1277;138411;-83
2022/05/24 12:16:02;;;;;;;5.30;4.10;;;;;;;20.54;55.94;97678.09;106470;1277;22563;-84
2022/05/24 12:18:54;;;;;;;8.60;3.90;;;;;;;20.54;55.62;97671.77;106023;1277;137838;-84
2022/05/24 12:21:51;;;;;;;8.90;4.30;;;;;;;20.62;56.18;97670.96;106183;1277;24280;-84
2022/05/24 12:24:34;;;;;;;6.50;4.20;;;;;;;20.66;55.90;97673.76;105643;1278;138668;-83
2022/05/24 12:27:28;;;;;;;4.90;3.80;;;;;;;20.70;56.62;97672.96;105940;1277;25360;-84
2022/05/24 12:30:12;;;;;;;5.30;3.60;;;;;;;20.75;56.27;97671.64;105771;1277;24105;-83
2022/05/24 12:32:41;;;;;;;5.50;4.10;;;;;;;20.76;55.65;97669.80;106388;1277;136934;-82
2022/05/24 12:35:13;;;;;;;7.50;3.90;;;;;;;20.77;55.54;97671.34;105868;1277;25265;-83
2022/05/24 12:37:53;;;;;;;7.30;3.80;;;;;;;20.77;55.29;97672.44;105835;1277;137349;-83